Time,TemperatureF,DewpointF,PressureIn,WindDirection,WindDirectionDegrees,WindSpeedMPH,WindSpeedGustMPH,Humidity,HourlyPrecipIn,Conditions,Clouds,dailyrainin,SoftwareType,DateUTC
2013-03-14 00:00:00,31.9,17.5,30.28,WNW,293,3.4,3.4,55,0.00,,,0.00,WUHU216HW,2013-03-14 04:00:00,
2013-03-14 00:05:00,31.9,17.5,30.28,WNW,293,3.4,3.4,55,0.00,,,0.00,WUHU216HW,2013-03-14 04:05:00,
2013-03-14 00:30:00,31.3,16.9,30.27,West,270,2.7,2.7,55,0.00,,,0.00,WUHU216HW,2013-03-14 04:30:00,
2013-03-14 00:35:00,31.3,16.9,30.27,West,270,2.7,2.7,55,0.00,,,0.00,WUHU216HW,2013-03-14 04:35:00,
2013-03-14 01:00:00,31.3,16.9,30.27,WNW,293,2.2,2.2,55,0.00,,,0.00,WUHU216HW,2013-03-14 05:00:00,
2013-03-14 01:05:00,31.3,16.9,30.27,WNW,293,2.2,2.2,55,0.00,,,0.00,WUHU216HW,2013-03-14 05:05:00,
2013-03-14 01:30:00,31.0,17.0,30.28,WNW,293,3.8,3.8,56,0.00,,,0.00,WUHU216HW,2013-03-14 05:30:00,
2013-03-14 01:35:00,31.0,17.0,30.28,WNW,293,3.8,3.8,56,0.00,,,0.00,WUHU216HW,2013-03-14 05:35:00,
2013-03-14 02:00:00,30.8,16.8,30.28,NNW,338,1.1,1.1,56,0.00,,,0.00,WUHU216HW,2013-03-14 06:00:00,
2013-03-14 02:05:00,30.8,16.8,30.28,NNW,338,1.1,1.1,56,0.00,,,0.00,WUHU216HW,2013-03-14 06:05:00,
2013-03-14 02:30:00,30.6,16.7,30.29,NNW,338,0.9,0.9,56,0.00,,,0.00,WUHU216HW,2013-03-14 06:30:00,
2013-03-14 02:35:00,30.6,16.7,30.29,NNW,338,0.9,0.9,56,0.00,,,0.00,WUHU216HW,2013-03-14 06:35:00,
2013-03-14 03:00:00,30.1,16.6,30.29,North,0,4.5,4.5,57,0.00,,,0.00,WUHU216HW,2013-03-14 07:00:00,
2013-03-14 03:05:00,30.1,16.6,30.29,North,0,4.5,4.5,57,0.00,,,0.00,WUHU216HW,2013-03-14 07:05:00,
2013-03-14 03:30:00,29.2,15.8,30.29,West,270,0.7,0.7,57,0.00,,,0.00,WUHU216HW,2013-03-14 07:30:00,
2013-03-14 03:35:00,29.2,15.8,30.29,West,270,0.7,0.7,57,0.00,,,0.00,WUHU216HW,2013-03-14 07:35:00,
2013-03-14 04:00:00,28.6,15.8,30.29,West,270,0.0,0.0,58,0.00,,,0.00,WUHU216HW,2013-03-14 08:00:00,
2013-03-14 04:05:00,28.6,15.8,30.29,West,270,0.0,0.0,58,0.00,,,0.00,WUHU216HW,2013-03-14 08:05:00,
2013-03-14 04:30:00,28.1,16.0,30.29,WNW,293,0.2,0.2,60,0.00,,,0.00,WUHU216HW,2013-03-14 08:30:00,
2013-03-14 04:35:00,28.1,16.0,30.29,WNW,293,0.2,0.2,60,0.00,,,0.00,WUHU216HW,2013-03-14 08:35:00,
2013-03-14 05:00:00,27.9,16.2,30.29,NW,315,1.3,1.3,61,0.00,,,0.00,WUHU216HW,2013-03-14 09:00:00,
2013-03-14 05:05:00,27.9,16.2,30.29,NW,315,1.3,1.3,61,0.00,,,0.00,WUHU216HW,2013-03-14 09:05:00,
2013-03-14 05:30:00,27.5,16.2,30.30,West,270,2.0,2.0,62,0.00,,,0.00,WUHU216HW,2013-03-14 09:30:00,
2013-03-14 05:35:00,27.5,16.2,30.30,West,270,2.0,2.0,62,0.00,,,0.00,WUHU216HW,2013-03-14 09:35:00,
2013-03-14 06:00:00,27.0,16.0,30.31,WNW,293,1.3,1.3,63,0.00,,,0.00,WUHU216HW,2013-03-14 10:00:00,
2013-03-14 06:05:00,27.0,16.0,30.31,WNW,293,1.3,1.3,63,0.00,,,0.00,WUHU216HW,2013-03-14 10:05:00,
2013-03-14 06:30:00,26.6,15.7,30.32,WNW,293,1.8,1.8,63,0.00,,,0.00,WUHU216HW,2013-03-14 10:30:00,
2013-03-14 06:35:00,26.6,15.7,30.32,WNW,293,1.8,1.8,63,0.00,,,0.00,WUHU216HW,2013-03-14 10:35:00,
2013-03-14 07:00:00,26.5,15.8,30.33,West,270,0.4,0.4,64,0.00,,,0.00,WUHU216HW,2013-03-14 11:00:00,
2013-03-14 07:05:00,26.5,15.8,30.33,West,270,0.4,0.4,64,0.00,,,0.00,WUHU216HW,2013-03-14 11:05:00,
2013-03-14 07:30:00,26.3,15.7,30.33,SE,135,0.0,0.0,64,0.00,,,0.00,WUHU216HW,2013-03-14 11:30:00,
2013-03-14 07:35:00,26.3,15.7,30.33,SE,135,0.0,0.0,64,0.00,,,0.00,WUHU216HW,2013-03-14 11:35:00,
2013-03-14 08:00:00,26.1,15.8,30.34,North,0,0.2,0.2,65,0.00,,,0.00,WUHU216HW,2013-03-14 12:00:00,
2013-03-14 08:05:00,26.1,15.8,30.34,North,0,0.2,0.2,65,0.00,,,0.00,WUHU216HW,2013-03-14 12:05:00,
2013-03-14 08:30:00,26.3,16.4,30.34,East,90,0.0,0.0,66,0.00,,,0.00,WUHU216HW,2013-03-14 12:30:00,
2013-03-14 08:35:00,26.3,16.4,30.34,East,90,0.0,0.0,66,0.00,,,0.00,WUHU216HW,2013-03-14 12:35:00,
2013-03-14 09:00:00,27.0,17.1,30.35,SE,135,0.0,0.0,66,0.00,,,0.00,WUHU216HW,2013-03-14 13:00:00,
2013-03-14 09:05:00,27.0,17.1,30.35,SE,135,0.0,0.0,66,0.00,,,0.00,WUHU216HW,2013-03-14 13:05:00,
2013-03-14 09:30:00,27.9,17.6,30.34,NNW,338,0.0,0.0,65,0.00,,,0.00,WUHU216HW,2013-03-14 13:30:00,
2013-03-14 09:35:00,27.9,17.6,30.34,NNW,338,0.0,0.0,65,0.00,,,0.00,WUHU216HW,2013-03-14 13:35:00,
2013-03-14 10:00:00,29.0,18.3,30.35,North,0,0.0,0.0,64,0.00,,,0.00,WUHU216HW,2013-03-14 14:00:00,
2013-03-14 10:05:00,29.0,18.3,30.35,North,0,0.0,0.0,64,0.00,,,0.00,WUHU216HW,2013-03-14 14:05:00,
2013-03-14 10:30:00,30.4,18.9,30.34,NE,45,4.0,4.0,62,0.00,,,0.00,WUHU216HW,2013-03-14 14:30:00,
2013-03-14 10:35:00,30.4,18.9,30.34,NE,45,4.0,4.0,62,0.00,,,0.00,WUHU216HW,2013-03-14 14:35:00,
2013-03-14 11:00:00,31.3,19.4,30.33,West,270,2.5,2.5,61,0.00,,,0.00,WUHU216HW,2013-03-14 15:00:00,
2013-03-14 11:05:00,31.3,19.4,30.33,West,270,2.5,2.5,61,0.00,,,0.00,WUHU216HW,2013-03-14 15:05:00,
2013-03-14 11:30:00,32.8,20.0,30.34,West,270,3.1,3.1,59,0.00,,,0.00,WUHU216HW,2013-03-14 15:30:00,
2013-03-14 11:35:00,32.8,20.0,30.34,West,270,3.1,3.1,59,0.00,,,0.00,WUHU216HW,2013-03-14 15:35:00,
2013-03-14 12:00:00,33.8,19.7,30.32,NNW,338,0.0,0.0,56,0.00,,,0.00,WUHU216HW,2013-03-14 16:00:00,
2013-03-14 12:05:00,33.8,19.7,30.32,NNW,338,0.0,0.0,56,0.00,,,0.00,WUHU216HW,2013-03-14 16:05:00,
2013-03-14 12:30:00,35.6,20.6,30.32,NW,315,0.0,0.0,54,0.00,,,0.00,WUHU216HW,2013-03-14 16:30:00,
2013-03-14 12:35:00,35.6,20.6,30.32,NW,315,0.0,0.0,54,0.00,,,0.00,WUHU216HW,2013-03-14 16:35:00,
2013-03-14 13:00:00,37.8,19.8,30.33,WSW,248,3.1,3.1,48,0.00,,,0.00,WUHU216HW,2013-03-14 17:00:00,
2013-03-14 13:05:00,37.8,19.8,30.33,WSW,248,3.1,3.1,48,0.00,,,0.00,WUHU216HW,2013-03-14 17:05:00,
2013-03-14 13:30:00,39.1,20.4,30.31,NNW,338,0.4,0.4,47,0.00,,,0.00,WUHU216HW,2013-03-14 17:30:00,
2013-03-14 13:35:00,39.1,20.4,30.31,NNW,338,0.4,0.4,47,0.00,,,0.00,WUHU216HW,2013-03-14 17:35:00,
2013-03-14 14:00:00,40.9,22.6,30.29,NW,315,2.2,2.2,48,0.00,,,0.00,WUHU216HW,2013-03-14 18:00:00,
2013-03-14 14:05:00,40.9,22.6,30.29,NW,315,2.2,2.2,48,0.00,,,0.00,WUHU216HW,2013-03-14 18:05:00,
2013-03-14 14:30:00,42.5,23.0,30.28,West,270,2.7,2.7,46,0.00,,,0.00,WUHU216HW,2013-03-14 18:30:00,
2013-03-14 14:35:00,42.5,23.0,30.28,West,270,2.7,2.7,46,0.00,,,0.00,WUHU216HW,2013-03-14 18:35:00,
2013-03-14 15:00:00,43.2,22.7,30.27,SSW,203,3.6,3.6,44,0.00,,,0.00,WUHU216HW,2013-03-14 19:00:00,
2013-03-14 15:05:00,43.2,22.7,30.27,SSW,203,3.6,3.6,44,0.00,,,0.00,WUHU216HW,2013-03-14 19:05:00,
2013-03-14 15:30:00,42.8,20.2,30.26,SW,225,2.9,2.9,40,0.00,,,0.00,WUHU216HW,2013-03-14 19:30:00,
2013-03-14 15:35:00,42.8,20.2,30.26,SW,225,2.9,2.9,40,0.00,,,0.00,WUHU216HW,2013-03-14 19:35:00,
2013-03-14 16:00:00,42.5,20.9,30.25,WSW,248,2.9,2.9,42,0.00,,,0.00,WUHU216HW,2013-03-14 20:00:00,
2013-03-14 16:05:00,42.5,20.9,30.25,WSW,248,2.9,2.9,42,0.00,,,0.00,WUHU216HW,2013-03-14 20:05:00,
2013-03-14 16:30:00,43.7,20.4,30.25,West,270,3.4,3.4,39,0.00,,,0.00,WUHU216HW,2013-03-14 20:30:00,
2013-03-14 16:35:00,43.7,20.4,30.25,West,270,3.4,3.4,39,0.00,,,0.00,WUHU216HW,2013-03-14 20:35:00,
2013-03-14 17:00:00,44.3,20.8,30.24,WSW,248,1.8,1.8,39,0.00,,,0.00,WUHU216HW,2013-03-14 21:00:00,
2013-03-14 17:05:00,44.3,20.8,30.24,WSW,248,1.8,1.8,39,0.00,,,0.00,WUHU216HW,2013-03-14 21:05:00,
2013-03-14 17:30:00,43.0,18.4,30.23,SW,225,1.8,1.8,37,0.00,,,0.00,WUHU216HW,2013-03-14 21:30:00,
2013-03-14 17:35:00,43.0,18.4,30.23,SW,225,1.8,1.8,37,0.00,,,0.00,WUHU216HW,2013-03-14 21:35:00,
2013-03-14 18:00:00,48.8,23.5,30.22,South,180,2.0,2.0,37,0.00,,,0.00,WUHU216HW,2013-03-14 22:00:00,
2013-03-14 18:05:00,48.8,23.5,30.22,South,180,2.0,2.0,37,0.00,,,0.00,WUHU216HW,2013-03-14 22:05:00,
2013-03-14 18:30:00,46.8,21.1,30.22,WSW,248,2.2,2.2,36,0.00,,,0.00,WUHU216HW,2013-03-14 22:30:00,
2013-03-14 18:35:00,46.8,21.1,30.22,WSW,248,2.2,2.2,36,0.00,,,0.00,WUHU216HW,2013-03-14 22:35:00,
2013-03-14 18:51:00,45.5,19.9,30.23,WSW,248,3.1,3.1,36,0.00,,,0.00,WUHU216HW,2013-03-14 22:51:00,
2013-03-14 18:56:00,44.8,20.0,30.23,SW,225,2.2,4.3,37,0.00,,,0.00,WUHU216HW,2013-03-14 22:56:00,
2013-03-14 19:01:00,44.3,20.2,30.22,SSW,203,2.9,4.3,38,0.00,,,0.00,WUHU216HW,2013-03-14 23:01:00,
2013-03-14 19:06:00,43.6,20.2,30.22,WSW,248,1.6,5.4,39,0.00,,,0.00,WUHU216HW,2013-03-14 23:06:00,
2013-03-14 19:11:00,43.2,19.8,30.22,WSW,248,2.5,5.4,39,0.00,,,0.00,WUHU216HW,2013-03-14 23:11:00,
2013-03-14 19:16:00,43.0,19.6,30.22,WSW,248,1.8,3.4,39,0.00,,,0.00,WUHU216HW,2013-03-14 23:16:00,
2013-03-14 19:21:00,42.5,19.8,30.22,WSW,248,2.0,3.4,40,0.00,,,0.00,WUHU216HW,2013-03-14 23:21:00,
2013-03-14 19:26:00,42.1,19.5,30.22,WSW,248,1.8,2.5,40,0.00,,,0.00,WUHU216HW,2013-03-14 23:26:00,
2013-03-14 19:31:00,41.8,19.2,30.22,WSW,248,1.1,2.2,40,0.00,,,0.00,WUHU216HW,2013-03-14 23:31:00,
2013-03-14 19:36:00,41.6,19.5,30.22,WSW,248,1.1,2.2,41,0.00,,,0.00,WUHU216HW,2013-03-14 23:36:00,
2013-03-14 19:41:00,41.4,19.9,30.22,WSW,248,0.7,1.6,42,0.00,,,0.00,WUHU216HW,2013-03-14 23:41:00,
2013-03-14 19:46:00,41.0,19.6,30.22,WSW,248,1.1,1.6,42,0.00,,,0.00,WUHU216HW,2013-03-14 23:46:00,
2013-03-14 19:51:00,40.7,19.3,30.22,West,270,1.1,1.3,42,0.00,,,0.00,WUHU216HW,2013-03-14 23:51:00,
2013-03-14 19:56:00,40.7,19.8,30.22,West,270,0.4,1.8,43,0.00,,,0.00,WUHU216HW,2013-03-14 23:56:00,
2013-03-14 20:01:00,40.5,19.6,30.22,WSW,248,1.1,2.2,43,0.00,,,0.00,WUHU216HW,2013-03-15 00:01:00,
2013-03-14 20:06:00,40.1,19.3,30.22,WSW,248,1.1,2.2,43,0.00,,,0.00,WUHU216HW,2013-03-15 00:06:00,
2013-03-14 20:11:00,40.1,19.8,30.22,WSW,248,0.9,2.0,44,0.00,,,0.00,WUHU216HW,2013-03-15 00:11:00,
2013-03-14 20:16:00,40.0,19.6,30.22,SW,225,1.1,1.6,44,0.00,,,0.00,WUHU216HW,2013-03-15 00:16:00,
2013-03-14 20:21:00,40.0,19.6,30.22,WSW,248,0.4,1.6,44,0.00,,,0.00,WUHU216HW,2013-03-15 00:21:00,
2013-03-14 20:26:00,39.8,19.5,30.22,West,270,1.8,1.8,44,0.00,,,0.00,WUHU216HW,2013-03-15 00:26:00,
2013-03-14 20:31:00,39.6,19.9,30.22,WNW,293,1.3,2.0,45,0.00,,,0.00,WUHU216HW,2013-03-15 00:31:00,
2013-03-14 20:36:00,39.6,19.9,30.22,WSW,248,1.1,2.5,45,0.00,,,0.00,WUHU216HW,2013-03-15 00:36:00,
2013-03-14 20:41:00,39.8,20.0,30.22,West,270,1.3,2.5,45,0.00,,,0.00,WUHU216HW,2013-03-15 00:41:00,
2013-03-14 20:46:00,39.8,20.0,30.22,WSW,248,1.1,2.7,45,0.00,,,0.00,WUHU216HW,2013-03-15 00:46:00,
2013-03-14 20:51:00,39.8,20.0,30.22,WSW,248,1.1,2.7,45,0.00,,,0.00,WUHU216HW,2013-03-15 00:51:00,
2013-03-14 20:56:00,39.8,20.0,30.22,West,270,1.1,1.8,45,0.00,,,0.00,WUHU216HW,2013-03-15 00:56:00,
2013-03-14 21:01:00,39.8,20.0,30.22,WSW,248,2.0,2.0,45,0.00,,,0.00,WUHU216HW,2013-03-15 01:01:00,
2013-03-14 21:06:00,39.6,19.9,30.22,West,270,1.1,2.0,45,0.00,,,0.00,WUHU216HW,2013-03-15 01:06:00,
2013-03-14 21:11:00,39.6,20.3,30.22,West,270,1.1,2.0,46,0.00,,,0.00,WUHU216HW,2013-03-15 01:11:00,
2013-03-14 21:16:00,39.6,20.3,30.22,West,270,2.5,2.7,46,0.00,,,0.00,WUHU216HW,2013-03-15 01:16:00,
2013-03-14 21:21:00,39.6,19.9,30.22,WSW,248,1.1,2.7,45,0.00,,,0.00,WUHU216HW,2013-03-15 01:21:00,
2013-03-14 21:26:00,39.6,19.9,30.22,West,270,0.9,2.5,45,0.00,,,0.00,WUHU216HW,2013-03-15 01:26:00,
2013-03-14 21:31:00,39.4,19.7,30.23,WSW,248,0.7,2.0,45,0.00,,,0.00,WUHU216HW,2013-03-15 01:31:00,
2013-03-14 21:36:00,39.2,19.5,30.23,West,270,0.7,1.6,45,0.00,,,0.00,WUHU216HW,2013-03-15 01:36:00,
2013-03-14 21:41:00,39.2,19.5,30.23,WNW,293,1.1,1.6,45,0.00,,,0.00,WUHU216HW,2013-03-15 01:41:00,
2013-03-14 21:47:00,39.1,19.4,30.23,West,270,1.8,1.8,45,0.00,,,0.00,WUHU216HW,2013-03-15 01:47:00,
2013-03-14 21:52:00,38.9,19.2,30.23,West,270,1.6,2.0,45,0.00,,,0.00,WUHU216HW,2013-03-15 01:52:00,
2013-03-14 21:57:00,38.9,19.2,30.23,West,270,1.8,2.5,45,0.00,,,0.00,WUHU216HW,2013-03-15 01:57:00,
2013-03-14 22:02:00,38.7,19.1,30.23,West,270,1.1,2.5,45,0.00,,,0.00,WUHU216HW,2013-03-15 02:02:00,
2013-03-14 22:07:00,38.7,19.1,30.22,West,270,1.1,2.5,45,0.00,,,0.00,WUHU216HW,2013-03-15 02:07:00,
2013-03-14 22:12:00,38.5,18.9,30.22,West,270,0.9,2.0,45,0.00,,,0.00,WUHU216HW,2013-03-15 02:12:00,
2013-03-14 22:17:00,38.5,18.9,30.22,West,270,1.3,2.0,45,0.00,,,0.00,WUHU216HW,2013-03-15 02:17:00,
2013-03-14 22:22:00,38.5,18.9,30.22,WSW,248,1.1,2.0,45,0.00,,,0.00,WUHU216HW,2013-03-15 02:22:00,
2013-03-14 22:27:00,38.5,18.9,30.22,West,270,1.6,2.0,45,0.00,,,0.00,WUHU216HW,2013-03-15 02:27:00,
2013-03-14 22:32:00,38.7,19.1,30.22,WNW,293,1.1,2.5,45,0.00,,,0.00,WUHU216HW,2013-03-15 02:32:00,
2013-03-14 22:37:00,38.5,18.9,30.22,WNW,293,1.3,2.5,45,0.00,,,0.00,WUHU216HW,2013-03-15 02:37:00,
2013-03-14 22:42:00,38.5,18.9,30.22,WNW,293,1.3,1.8,45,0.00,,,0.00,WUHU216HW,2013-03-15 02:42:00,
2013-03-14 22:47:00,38.5,18.9,30.22,WNW,293,1.8,1.8,45,0.00,,,0.00,WUHU216HW,2013-03-15 02:47:00,
2013-03-14 22:52:00,38.3,19.3,30.23,WNW,293,1.6,2.0,46,0.00,,,0.00,WUHU216HW,2013-03-15 02:52:00,
2013-03-14 22:57:00,38.2,19.1,30.23,West,270,1.3,2.5,46,0.00,,,0.00,WUHU216HW,2013-03-15 02:57:00,
2013-03-14 23:02:00,38.2,19.6,30.23,West,270,1.8,2.5,47,0.00,,,0.00,WUHU216HW,2013-03-15 03:02:00,
2013-03-14 23:07:00,38.2,19.6,30.22,WNW,293,1.8,2.2,47,0.00,,,0.00,WUHU216HW,2013-03-15 03:07:00,
2013-03-14 23:12:00,38.2,19.6,30.23,WNW,293,1.6,2.2,47,0.00,,,0.00,WUHU216HW,2013-03-15 03:12:00,
2013-03-14 23:17:00,38.0,19.4,30.22,West,270,0.9,2.2,47,0.00,,,0.00,WUHU216HW,2013-03-15 03:17:00,
2013-03-14 23:22:00,38.0,19.4,30.22,WNW,293,1.8,1.8,47,0.00,,,0.00,WUHU216HW,2013-03-15 03:22:00,
2013-03-14 23:27:00,38.0,19.4,30.22,WSW,248,2.5,2.5,47,0.00,,,0.00,WUHU216HW,2013-03-15 03:27:00,
2013-03-14 23:32:00,38.0,20.0,30.22,WSW,248,2.7,2.7,48,0.00,,,0.00,WUHU216HW,2013-03-15 03:32:00,
2013-03-14 23:37:00,38.0,20.0,30.22,SW,225,2.0,2.7,48,0.00,,,0.00,WUHU216HW,2013-03-15 03:37:00,
2013-03-14 23:42:00,38.0,20.0,30.22,West,270,1.1,3.1,48,0.00,,,0.00,WUHU216HW,2013-03-15 03:42:00,
2013-03-14 23:47:00,38.2,20.2,30.22,West,270,0.7,3.1,48,0.00,,,0.00,WUHU216HW,2013-03-15 03:47:00,
2013-03-14 23:52:00,38.0,20.0,30.22,West,270,2.9,2.9,48,0.00,,,0.00,WUHU216HW,2013-03-15 03:52:00,
2013-03-14 23:57:00,38.0,20.0,30.22,WNW,293,2.5,2.9,48,0.00,,,0.00,WUHU216HW,2013-03-15 03:57:00,